Diamond, Oregon
Current Conditions -  °F | °C
As of 7:53 AM on Thursday 18 Dec 2014 (Local Time) from KBNO Reporting Station
Overcast Overcast  
Wind Chill: 32°   Ceiling: 3900
Heat Index: 32°   Visibility: 10mi
Dew Point: 30°   Wind: 3mph
Humidity: 92%   Direction: 50°NE
Pressure: 30.04"   Gusts: NA
Location:  43.01°N, 118.66°W
Report Text: KBNO 181553Z AUTO 05003KT 10SM SCT030 OVC039 00/M01 A3004 RMK AO2 SLP190 T00001011
Loading
Personal Weather Stations






























Interactive Weather Map New forecast layout! Learn more

10-Day Weather Forecast

Advertisements
Track Severe Weather on mobile